Time;durP1;ratioP1;P1;durP2;ratioP2;P2;SDS_P1;SDS_P2;PMS_P1;PMS_P2;Temp;Humidity;BMP_temperature;BMP_pressure;BME280_temperature;BME280_humidity;BME280_pressure;Samples;Min_cycle;Max_cycle;Signal;HPM_P1;HPM_P2
2023/09/29 00:00:24;;;;;;;0.50;0.30;;;;;;;20.35;99.58;95738.47;5111686;28;20459;-60
2023/09/29 00:02:54;;;;;;;0.50;0.30;;;;;;;20.62;98.99;95740.75;5112072;28;20500;-60
2023/09/29 00:05:23;;;;;;;0.50;0.40;;;;;;;20.66;95.33;95743.63;5087038;28;20434;-60
2023/09/29 00:07:52;;;;;;;0.63;0.40;;;;;;;20.19;98.04;95745.44;5112456;28;20524;-60
2023/09/29 00:10:21;;;;;;;0.53;0.40;;;;;;;20.24;100.00;95737.22;5113207;28;20438;-60
2023/09/29 00:12:55;;;;;;;1.13;0.50;;;;;;;20.16;98.24;95738.00;5112826;28;20448;-60
2023/09/29 00:15:23;;;;;;;1.77;0.60;;;;;;;19.79;100.00;95730.59;5112981;28;20868;-60
2023/09/29 00:17:52;;;;;;;0.50;0.50;;;;;;;19.71;99.00;95715.28;5112221;28;20545;-60
2023/09/29 00:20:23;;;;;;;0.90;0.53;;;;;;;19.71;94.45;95716.03;5112581;28;20805;-60
2023/09/29 00:22:54;;;;;;;0.63;0.50;;;;;;;19.74;95.00;95693.88;5112424;28;20434;-60
2023/09/29 00:25:23;;;;;;;0.70;0.70;;;;;;;19.81;90.55;95729.16;5112496;28;20439;-60
2023/09/29 00:27:52;;;;;;;0.60;0.50;;;;;;;19.19;90.86;95631.09;5112481;28;20471;-60
2023/09/29 00:30:22;;;;;;;5.63;0.50;;;;;;;19.73;89.52;95713.03;5112577;28;20432;-60
2023/09/29 00:32:52;;;;;;;0.70;0.50;;;;;;;19.77;88.37;95728.22;5112591;28;20467;-59
2023/09/29 00:35:27;;;;;;;4.93;2.03;;;;;;;19.80;89.51;95727.59;5112529;28;20435;-58
2023/09/29 00:37:58;;;;;;;0.67;0.67;;;;;;;19.64;89.13;95734.53;5112401;28;20439;-59
2023/09/29 00:40:28;;;;;;;1.10;0.70;;;;;;;19.64;89.62;95724.59;5111853;28;20442;-59
2023/09/29 00:42:58;;;;;;;0.47;0.33;;;;;;;19.76;89.07;95720.50;5112446;28;20793;-58
2023/09/29 00:45:30;;;;;;;1.30;0.60;;;;;;;19.73;87.60;95713.84;5112024;28;20947;-60
2023/09/29 00:48:06;;;;;;;0.60;0.57;;;;;;;19.88;88.66;95726.00;5112174;28;20474;-59
2023/09/29 00:50:37;;;;;;;0.70;0.53;;;;;;;19.93;87.87;95721.28;5112253;28;20459;-59
2023/09/29 00:53:11;;;;;;;0.83;0.83;;;;;;;20.15;88.60;95721.06;5112079;28;21081;-58
2023/09/29 00:55:41;;;;;;;2.03;0.73;;;;;;;20.14;85.41;95716.78;5112595;28;20527;-59
2023/09/29 00:58:12;;;;;;;0.60;0.40;;;;;;;20.13;87.36;95717.13;5112050;28;20440;-58
2023/09/29 01:00:45;;;;;;;2.97;0.80;;;;;;;20.09;85.63;95716.94;5112026;28;20436;-58
2023/09/29 01:03:15;;;;;;;0.50;0.50;;;;;;;19.84;86.24;95711.59;5111666;28;20440;-58
2023/09/29 01:05:46;;;;;;;0.80;0.60;;;;;;;19.89;86.85;95711.44;5112411;28;20435;-59
2023/09/29 01:08:17;;;;;;;1.03;0.63;;;;;;;20.04;86.88;95711.75;5111818;28;20471;-58
2023/09/29 01:10:46;;;;;;;0.90;0.77;;;;;;;19.92;84.85;95705.44;5111899;28;20518;-58
2023/09/29 01:13:15;;;;;;;0.50;0.40;;;;;;;19.88;84.86;95704.50;5111227;28;20458;-59
2023/09/29 01:15:45;;;;;;;0.50;0.47;;;;;;;19.85;84.59;95689.78;5112393;28;20436;-59
2023/09/29 01:18:16;;;;;;;0.50;0.40;;;;;;;19.94;83.23;95701.31;5111815;28;21013;-58
2023/09/29 01:20:45;;;;;;;0.80;0.40;;;;;;;20.21;83.70;95706.31;5111858;28;20442;-58
2023/09/29 01:23:14;;;;;;;0.57;0.57;;;;;;;20.56;83.04;95703.56;5111744;28;20952;-58
2023/09/29 01:25:44;;;;;;;0.40;0.30;;;;;;;20.58;80.75;95660.94;5111343;28;20440;-59
2023/09/29 01:28:13;;;;;;;0.40;0.20;;;;;;;21.07;81.90;95700.66;5111455;28;20546;-58
2023/09/29 01:30:43;;;;;;;0.43;0.27;;;;;;;20.98;80.35;95705.28;5111593;28;20887;-58
2023/09/29 01:33:12;;;;;;;0.50;0.30;;;;;;;20.99;82.01;95712.25;5110720;28;20447;-59
2023/09/29 01:35:43;;;;;;;0.40;0.30;;;;;;;21.11;81.86;95704.28;5111319;28;20975;-58
2023/09/29 01:38:13;;;;;;;0.50;0.40;;;;;;;21.08;82.00;95696.84;5111713;28;20439;-58
2023/09/29 01:40:44;;;;;;;0.43;0.23;;;;;;;21.07;81.49;95700.66;5110894;28;20522;-58
2023/09/29 01:43:16;;;;;;;0.60;0.30;;;;;;;20.96;81.64;95691.34;5111409;28;20435;-58
2023/09/29 01:45:44;;;;;;;0.50;0.30;;;;;;;21.00;80.71;95700.34;5111052;28;20488;-58
2023/09/29 01:48:13;;;;;;;0.50;0.30;;;;;;;20.86;80.81;95703.28;5111125;28;20439;-58
2023/09/29 01:50:42;;;;;;;0.40;0.30;;;;;;;20.66;79.78;95695.13;5111030;28;20435;-58
2023/09/29 01:53:12;;;;;;;0.50;0.40;;;;;;;20.88;80.26;95690.28;5111512;28;20467;-58
2023/09/29 01:55:40;;;;;;;0.40;0.30;;;;;;;20.83;80.08;95703.13;5085286;28;20431;-58
2023/09/29 01:58:09;;;;;;;0.40;0.30;;;;;;;20.77;81.24;95699.81;5110645;28;20443;-58
2023/09/29 02:00:40;;;;;;;0.50;0.30;;;;;;;20.85;81.17;95693.59;5111838;28;20500;-58
2023/09/29 02:03:08;;;;;;;0.60;0.40;;;;;;;20.81;80.13;95692.69;5111682;28;20440;-59
2023/09/29 02:05:37;;;;;;;1.00;0.40;;;;;;;20.38;83.04;95678.59;5111483;28;20468;-59
2023/09/29 02:08:07;;;;;;;0.40;0.30;;;;;;;19.83;87.20;95654.34;5111377;28;20523;-58
2023/09/29 02:10:36;;;;;;;0.60;0.50;;;;;;;19.93;91.26;95694.38;5111654;28;20508;-59
2023/09/29 02:13:05;;;;;;;0.60;0.30;;;;;;;20.14;92.53;95695.25;5111408;28;20457;-59
2023/09/29 02:15:35;;;;;;;1.20;0.30;;;;;;;20.43;91.27;95708.03;5111379;28;20432;-59
2023/09/29 02:18:06;;;;;;;0.40;0.30;;;;;;;20.65;89.78;95707.00;5111208;28;20998;-59
2023/09/29 02:20:36;;;;;;;0.60;0.30;;;;;;;20.71;88.58;95703.81;5111139;28;20446;-59
2023/09/29 02:23:07;;;;;;;0.50;0.30;;;;;;;20.63;88.05;95696.56;5110638;28;20436;-59
2023/09/29 02:25:35;;;;;;;0.47;0.30;;;;;;;20.69;85.07;95687.22;5114130;28;20467;-59
2023/09/29 02:28:04;;;;;;;0.50;0.30;;;;;;;20.77;83.74;95693.66;5115046;28;20431;-59
2023/09/29 02:30:34;;;;;;;0.40;0.20;;;;;;;20.78;84.29;95692.53;5115008;28;20893;-59
2023/09/29 02:33:02;;;;;;;0.40;0.30;;;;;;;20.51;79.93;95691.06;5114783;28;20496;-58
2023/09/29 02:35:32;;;;;;;0.40;0.30;;;;;;;20.58;84.44;95690.56;5114775;28;20496;-58
2023/09/29 02:38:03;;;;;;;0.70;0.40;;;;;;;20.49;81.95;95652.13;5114760;28;20439;-59
2023/09/29 02:40:31;;;;;;;0.50;0.30;;;;;;;20.74;81.54;95686.22;5114061;28;20450;-59
2023/09/29 02:43:00;;;;;;;0.40;0.20;;;;;;;20.67;81.65;95688.63;5114796;28;20435;-58
2023/09/29 02:45:29;;;;;;;0.40;0.20;;;;;;;20.77;83.10;95694.44;5113638;28;20427;-58
2023/09/29 02:47:57;;;;;;;0.60;0.30;;;;;;;20.79;80.43;95696.81;5114850;28;20492;-58
2023/09/29 02:50:26;;;;;;;0.50;0.37;;;;;;;20.67;82.88;95700.19;5114455;28;20475;-58
2023/09/29 02:52:56;;;;;;;0.50;0.33;;;;;;;20.61;80.88;95703.38;5114362;28;20975;-58
2023/09/29 02:55:26;;;;;;;0.47;0.27;;;;;;;20.54;81.43;95692.34;5114095;28;20439;-60
2023/09/29 02:57:54;;;;;;;0.40;0.30;;;;;;;20.37;80.79;95700.44;5114479;28;20853;-59
2023/09/29 03:00:26;;;;;;;0.40;0.30;;;;;;;20.34;82.62;95699.19;5113783;28;20873;-59
2023/09/29 03:02:55;;;;;;;1.33;0.50;;;;;;;20.62;82.98;95694.97;5114215;28;20431;-59
2023/09/29 03:05:25;;;;;;;0.50;0.30;;;;;;;20.39;81.25;95690.94;5114782;28;20438;-59
2023/09/29 03:07:55;;;;;;;0.50;0.33;;;;;;;20.40;82.49;95691.72;5113522;28;20440;-59
2023/09/29 03:10:26;;;;;;;0.50;0.40;;;;;;;20.47;82.36;95697.41;5113527;28;20478;-57
2023/09/29 03:12:56;;;;;;;0.47;0.30;;;;;;;20.53;83.67;95691.53;5113443;28;20439;-57
2023/09/29 03:15:26;;;;;;;0.50;0.40;;;;;;;20.76;85.06;95695.56;5113943;28;21000;-58
2023/09/29 03:17:56;;;;;;;0.50;0.30;;;;;;;20.75;81.78;95691.28;5113582;28;20452;-58
2023/09/29 03:20:28;;;;;;;0.50;0.40;;;;;;;20.56;82.57;95690.09;5113693;28;20439;-58
2023/09/29 03:22:58;;;;;;;0.50;0.30;;;;;;;20.36;82.51;95691.59;5113257;28;20450;-58
2023/09/29 03:25:29;;;;;;;0.50;0.40;;;;;;;20.23;84.69;95682.63;5113738;28;20507;-58
2023/09/29 03:27:59;;;;;;;0.40;0.30;;;;;;;20.18;85.07;95693.53;5113313;28;20451;-58
2023/09/29 03:30:28;;;;;;;0.40;0.30;;;;;;;20.13;84.42;95688.31;5113635;28;20483;-58
2023/09/29 03:32:57;;;;;;;0.60;0.37;;;;;;;19.96;86.08;95693.69;5113257;28;20527;-59
2023/09/29 03:35:26;;;;;;;0.47;0.40;;;;;;;19.99;85.09;95693.06;5113039;28;20439;-58
2023/09/29 03:37:55;;;;;;;0.50;0.37;;;;;;;19.89;86.48;95688.03;5113026;28;20495;-60
2023/09/29 03:40:24;;;;;;;2.50;0.33;;;;;;;19.89;87.50;95677.25;5113291;28;20439;-59
2023/09/29 03:42:55;;;;;;;0.60;0.40;;;;;;;19.63;86.63;95628.88;5113026;28;20447;-58
2023/09/29 03:45:23;;;;;;;0.50;0.40;;;;;;;20.14;88.02;95694.47;5113035;28;20943;-59
2023/09/29 03:47:52;;;;;;;0.50;0.33;;;;;;;19.75;87.11;95652.44;5113466;28;20436;-58
2023/09/29 03:50:21;;;;;;;0.40;0.30;;;;;;;19.90;90.07;95694.19;5113000;28;20559;-58
2023/09/29 03:52:49;;;;;;;0.40;0.27;;;;;;;19.88;86.52;95691.84;5112904;28;20913;-59
2023/09/29 03:55:18;;;;;;;0.60;0.50;;;;;;;19.98;87.78;95691.50;5112881;27;20435;-59
2023/09/29 03:57:48;;;;;;;0.40;0.20;;;;;;;19.74;86.57;95685.81;5113256;28;20943;-59
2023/09/29 04:00:18;;;;;;;1.87;1.87;;;;;;;19.68;88.19;95692.50;5112741;28;20440;-59
2023/09/29 04:02:50;;;;;;;0.40;0.30;;;;;;;19.80;89.58;95692.63;5112857;28;20821;-59
2023/09/29 04:05:20;;;;;;;0.40;0.30;;;;;;;19.64;89.08;95695.00;5112864;28;20511;-59
2023/09/29 04:07:49;;;;;;;0.80;0.30;;;;;;;19.70;91.10;95690.25;5113734;27;20443;-59
2023/09/29 04:10:20;;;;;;;0.60;0.60;;;;;;;19.62;91.37;95688.38;5112820;28;20523;-59
2023/09/29 04:12:50;;;;;;;0.60;0.40;;;;;;;19.66;91.36;95688.53;5112322;28;20439;-59
2023/09/29 04:15:20;;;;;;;0.73;0.60;;;;;;;19.59;91.91;95689.00;5112932;27;20440;-59
2023/09/29 04:17:49;;;;;;;0.60;0.37;;;;;;;19.61;93.42;95690.25;5112987;28;20947;-59
2023/09/29 04:20:18;;;;;;;0.43;0.30;;;;;;;19.47;92.06;95695.00;5112773;28;20470;-59
2023/09/29 04:22:46;;;;;;;0.57;0.57;;;;;;;19.60;92.77;95696.75;5112364;28;20450;-59
2023/09/29 04:25:16;;;;;;;0.53;0.40;;;;;;;19.58;91.32;95698.19;5112261;28;20518;-60
2023/09/29 04:27:45;;;;;;;3.27;0.50;;;;;;;19.41;90.81;95698.16;5112143;28;20434;-59
2023/09/29 04:30:14;;;;;;;0.53;0.40;;;;;;;19.37;91.50;95694.53;5111783;28;20471;-59
2023/09/29 04:32:47;;;;;;;0.60;0.60;;;;;;;18.97;91.76;95656.19;5105549;28;20438;-59
2023/09/29 04:35:15;;;;;;;0.40;0.30;;;;;;;19.01;90.95;95622.22;5112177;28;20448;-59
2023/09/29 04:37:44;;;;;;;0.50;0.37;;;;;;;19.55;91.92;95693.44;5111726;28;20439;-58
2023/09/29 04:40:16;;;;;;;0.60;0.60;;;;;;;19.51;88.24;95701.31;5112355;28;20432;-59
2023/09/29 04:42:45;;;;;;;0.57;0.37;;;;;;;19.12;89.64;95663.81;5085302;28;20843;-59
2023/09/29 04:45:13;;;;;;;0.40;0.30;;;;;;;19.47;89.36;95707.66;5111835;28;20439;-59
2023/09/29 04:47:43;;;;;;;0.60;0.40;;;;;;;19.62;89.99;95693.75;5111283;28;20474;-59
2023/09/29 04:50:14;;;;;;;0.50;0.50;;;;;;;19.58;89.62;95695.50;5110201;28;20467;-58
2023/09/29 04:52:42;;;;;;;0.50;0.30;;;;;;;19.84;90.31;95704.31;5110354;28;20463;-58
2023/09/29 04:55:11;;;;;;;0.80;0.73;;;;;;;19.56;88.05;95690.41;5110295;28;20440;-57
2023/09/29 04:57:39;;;;;;;1.70;1.00;;;;;;;19.60;89.26;95704.81;5111189;28;20446;-57
2023/09/29 05:00:09;;;;;;;0.60;0.40;;;;;;;18.31;88.92;95558.75;5110369;28;20427;-59
2023/09/29 05:02:38;;;;;;;0.50;0.40;;;;;;;19.56;89.29;95705.75;5110778;28;20443;-58
2023/09/29 05:05:09;;;;;;;0.50;0.40;;;;;;;19.29;88.20;95671.88;5110928;28;20947;-58
2023/09/29 05:07:37;;;;;;;0.43;0.30;;;;;;;19.53;89.20;95709.09;5111854;28;20463;-57
2023/09/29 05:10:07;;;;;;;0.50;0.40;;;;;;;19.34;88.75;95670.94;5111947;28;20603;-58
2023/09/29 05:12:36;;;;;;;0.73;0.73;;;;;;;19.38;88.27;95704.19;5112270;28;20442;-57
2023/09/29 05:15:05;;;;;;;0.50;0.30;;;;;;;19.46;88.64;95706.06;5111443;28;20447;-58
2023/09/29 05:17:34;;;;;;;0.60;0.50;;;;;;;19.57;88.43;95708.16;5111279;28;20435;-58
2023/09/29 05:20:20;;;;;;;0.70;0.70;;;;;;;19.68;88.76;95703.25;5112088;28;20939;-59
2023/09/29 05:22:48;;;;;;;1.83;0.40;;;;;;;19.98;88.59;95709.53;5110661;28;20436;-59
2023/09/29 05:25:17;;;;;;;0.70;0.50;;;;;;;19.88;87.53;95705.28;5111567;28;20492;-59
2023/09/29 05:27:45;;;;;;;0.60;0.50;;;;;;;19.94;87.67;95716.66;5111211;28;20435;-62
2023/09/29 05:30:14;;;;;;;0.40;0.30;;;;;;;19.61;88.23;95665.25;5111764;28;20435;-62
2023/09/29 05:32:43;;;;;;;0.57;0.50;;;;;;;19.84;86.33;95712.41;5111580;28;20454;-62
2023/09/29 05:35:11;;;;;;;0.50;0.30;;;;;;;19.82;86.16;95716.50;5111837;28;20447;-62
2023/09/29 05:37:41;;;;;;;0.50;0.40;;;;;;;19.56;86.46;95652.78;5111190;28;20510;-62
2023/09/29 05:40:11;;;;;;;0.63;0.63;;;;;;;20.20;83.75;95715.53;5111786;28;20439;-62
2023/09/29 05:42:39;;;;;;;1.47;0.77;;;;;;;20.22;85.85;95712.50;5111551;28;20442;-62
2023/09/29 05:45:20;;;;;;;0.90;0.50;;;;;;;20.18;82.00;95720.44;5111340;28;20435;-61
2023/09/29 05:47:51;;;;;;;0.50;0.50;;;;;;;20.02;83.82;95716.66;5111827;28;20519;-61
2023/09/29 05:50:21;;;;;;;1.57;0.90;;;;;;;20.01;81.99;95725.81;5111678;28;20435;-60
2023/09/29 05:52:51;;;;;;;1.57;0.50;;;;;;;20.57;83.16;95726.69;5111199;28;20470;-60
2023/09/29 05:55:37;;;;;;;0.40;0.30;;;;;;;20.51;83.27;95693.78;5111453;28;20437;-59
2023/09/29 05:58:06;;;;;;;4.73;0.60;;;;;;;20.97;80.03;95727.16;5111259;28;20435;-58
2023/09/29 06:00:35;;;;;;;3.60;0.53;;;;;;;20.86;79.28;95700.59;5115083;28;20440;-58
2023/09/29 06:03:04;;;;;;;0.50;0.47;;;;;;;21.35;80.41;95723.31;5114480;28;20534;-57
2023/09/29 06:05:32;;;;;;;0.40;0.30;;;;;;;19.59;75.98;95450.47;5115020;28;20446;-58
2023/09/29 06:08:03;;;;;;;0.50;0.50;;;;;;;20.99;77.17;95717.66;5115114;28;21010;-58
2023/09/29 06:10:31;;;;;;;0.50;0.40;;;;;;;21.19;76.07;95727.72;5114792;28;20497;-56
2023/09/29 06:13:00;;;;;;;0.43;0.37;;;;;;;20.13;76.06;95598.69;5114696;28;20462;-56
2023/09/29 06:15:32;;;;;;;0.90;0.40;;;;;;;21.28;75.91;95727.63;5114801;28;20447;-57
2023/09/29 06:18:01;;;;;;;0.50;0.40;;;;;;;21.27;75.83;95713.38;5114301;28;20443;-56
2023/09/29 06:20:30;;;;;;;0.50;0.33;;;;;;;21.03;74.23;95651.19;5114146;28;20903;-57
2023/09/29 06:22:58;;;;;;;2.60;1.03;;;;;;;21.82;76.59;95733.94;5114973;28;20442;-55
2023/09/29 06:25:29;;;;;;;0.50;0.30;;;;;;;21.92;74.73;95720.06;5114500;28;20498;-56
2023/09/29 06:27:57;;;;;;;0.60;0.43;;;;;;;21.97;74.80;95719.84;5114688;27;20789;-55
2023/09/29 06:30:26;;;;;;;0.50;0.40;;;;;;;22.17;72.87;95731.72;5114388;28;20450;-55
2023/09/29 06:32:54;;;;;;;0.67;0.50;;;;;;;21.75;73.79;95731.78;5088674;28;20470;-56
2023/09/29 06:35:23;;;;;;;0.50;0.30;;;;;;;21.88;73.22;95716.47;5114616;28;20431;-55
2023/09/29 06:37:52;;;;;;;0.50;0.30;;;;;;;21.98;73.56;95732.25;5106746;28;20467;-55
2023/09/29 06:40:22;;;;;;;0.60;0.50;;;;;;;22.99;71.49;95725.28;5109188;28;20435;-55
2023/09/29 06:42:52;;;;;;;1.90;0.40;;;;;;;23.86;66.85;95721.00;5114319;28;20950;-57
2023/09/29 06:45:21;;;;;;;0.60;0.30;;;;;;;24.61;63.25;95694.84;5114168;28;20456;-58
2023/09/29 06:47:53;;;;;;;0.60;0.60;;;;;;;25.46;62.79;95732.19;5114361;28;20944;-58
2023/09/29 06:50:22;;;;;;;0.40;0.30;;;;;;;25.98;57.76;95726.31;5114496;28;20447;-59
2023/09/29 06:52:51;;;;;;;0.60;0.40;;;;;;;26.58;58.81;95732.94;5113633;28;20581;-60
2023/09/29 06:55:19;;;;;;;0.50;0.40;;;;;;;26.72;55.96;95728.53;5109561;28;20480;-61
2023/09/29 06:57:49;;;;;;;0.40;0.30;;;;;;;27.09;55.56;95737.78;5105855;28;20439;-62
2023/09/29 07:00:19;;;;;;;1.13;0.40;;;;;;;27.18;54.57;95729.34;5114106;28;20446;-61
2023/09/29 07:02:51;;;;;;;0.40;0.30;;;;;;;27.21;54.14;95733.28;5114182;28;20950;-60
2023/09/29 07:05:20;;;;;;;0.50;0.30;;;;;;;27.49;53.40;95729.06;5087042;28;20439;-61
2023/09/29 07:07:48;;;;;;;0.87;0.87;;;;;;;27.74;52.21;95729.41;5113895;28;20440;-53
2023/09/29 07:10:18;;;;;;;0.50;0.40;;;;;;;27.62;52.69;95703.22;5113476;28;20439;-52
2023/09/29 07:12:46;;;;;;;3.03;1.60;;;;;;;28.06;51.48;95722.47;5113787;28;20514;-52
2023/09/29 07:15:15;;;;;;;0.40;0.30;;;;;;;28.31;50.11;95728.19;5113985;28;20928;-51
2023/09/29 07:17:45;;;;;;;10.10;0.53;;;;;;;28.05;49.19;95720.91;5113223;28;20889;-51
2023/09/29 07:20:14;;;;;;;0.73;0.50;;;;;;;28.37;49.69;95717.75;5114008;28;20495;-51
2023/09/29 07:22:42;;;;;;;0.70;0.53;;;;;;;28.59;50.19;95717.59;5114162;28;20539;-51
2023/09/29 07:25:11;;;;;;;0.50;0.40;;;;;;;29.13;47.90;95718.91;5114093;28;20451;-51
2023/09/29 07:27:40;;;;;;;0.40;0.30;;;;;;;28.54;45.35;95690.66;5112395;28;20474;-51
2023/09/29 07:30:09;;;;;;;0.40;0.30;;;;;;;28.08;47.90;95722.09;5111719;28;20440;-52
2023/09/29 07:32:40;;;;;;;0.40;0.30;;;;;;;28.10;47.85;95717.84;5111386;28;21107;-52
2023/09/29 07:35:10;;;;;;;0.50;0.50;;;;;;;28.32;47.21;95716.94;5111351;28;20431;-52
2023/09/29 07:37:39;;;;;;;0.40;0.40;;;;;;;28.25;45.92;95719.59;5111030;28;20439;-51
2023/09/29 07:40:09;;;;;;;0.43;0.40;;;;;;;28.27;45.35;95713.75;5111474;28;20447;-51
2023/09/29 07:42:38;;;;;;;0.37;0.30;;;;;;;28.01;43.61;95667.50;5112047;28;20438;-52
2023/09/29 07:45:07;;;;;;;3.03;0.80;;;;;;;28.70;46.42;95695.91;5113330;28;20819;-51
2023/09/29 07:47:40;;;;;;;0.90;0.60;;;;;;;28.84;42.06;95707.72;5087538;28;20800;-51
2023/09/29 07:50:11;;;;;;;0.70;0.70;;;;;;;28.94;42.57;95703.56;5113281;28;20852;-51
2023/09/29 07:52:40;;;;;;;0.40;0.30;;;;;;;29.83;40.55;95672.97;5112605;28;20487;-49
2023/09/29 07:55:10;;;;;;;0.40;0.30;;;;;;;29.82;40.25;95703.41;5112456;28;20539;-50
2023/09/29 07:57:38;;;;;;;1.00;0.50;;;;;;;30.01;40.96;95692.16;5112974;28;20463;-50
2023/09/29 08:00:08;;;;;;;0.30;0.20;;;;;;;30.64;38.23;95697.06;5112340;28;20432;-50
2023/09/29 08:02:37;;;;;;;0.40;0.30;;;;;;;30.51;38.66;95665.78;5112739;28;20439;-50
2023/09/29 08:05:07;;;;;;;0.63;0.60;;;;;;;30.48;37.02;95694.72;5113386;28;20446;-51
2023/09/29 08:07:37;;;;;;;2.07;0.80;;;;;;;31.28;38.23;95682.25;5112861;28;20446;-50
2023/09/29 08:10:07;;;;;;;0.40;0.30;;;;;;;30.93;37.36;95695.19;5098942;28;20970;-51
2023/09/29 08:12:36;;;;;;;0.47;0.30;;;;;;;31.10;35.61;95689.69;5112278;28;20851;-50
2023/09/29 08:15:06;;;;;;;0.63;0.30;;;;;;;30.72;36.42;95684.97;5112440;28;20443;-51
2023/09/29 08:17:35;;;;;;;0.40;0.30;;;;;;;30.34;36.87;95682.91;5112388;28;20438;-51
2023/09/29 08:20:05;;;;;;;0.40;0.30;;;;;;;29.04;36.94;95571.06;5085543;28;20478;-51
2023/09/29 08:22:33;;;;;;;0.40;0.30;;;;;;;29.45;36.79;95678.97;5111658;28;20526;-51
2023/09/29 08:25:13;;;;;;;1.40;0.30;;;;;;;29.17;38.00;95674.06;5112864;28;20442;-51
2023/09/29 08:27:42;;;;;;;0.50;0.30;;;;;;;28.72;36.88;95680.75;5112497;28;20780;-51
2023/09/29 08:30:11;;;;;;;5.23;0.40;;;;;;;27.70;38.53;95649.59;5112104;28;20530;-52
2023/09/29 08:32:43;;;;;;;1.13;0.87;;;;;;;28.20;38.47;95676.31;5112670;28;20532;-52
2023/09/29 08:35:13;;;;;;;1.37;0.47;;;;;;;27.85;39.73;95618.66;5111986;28;20977;-52
2023/09/29 08:37:43;;;;;;;1.03;1.03;;;;;;;28.24;38.14;95681.78;5112040;28;21032;-52
2023/09/29 08:40:17;;;;;;;0.30;0.20;;;;;;;28.10;39.54;95678.91;5112332;28;20982;-52
2023/09/29 08:42:49;;;;;;;0.50;0.50;;;;;;;28.54;40.26;95677.03;5112214;28;20438;-52
2023/09/29 08:45:19;;;;;;;0.40;0.30;;;;;;;28.16;37.62;95637.31;5112168;28;20526;-52
2023/09/29 08:47:51;;;;;;;0.40;0.30;;;;;;;28.69;38.66;95669.81;5111790;28;20443;-52
2023/09/29 08:50:23;;;;;;;3.43;0.53;;;;;;;28.23;37.42;95682.97;5112167;28;20433;-52
2023/09/29 08:52:53;;;;;;;0.93;0.60;;;;;;;28.37;36.87;95674.91;5111664;28;20486;-52
2023/09/29 08:55:24;;;;;;;0.40;0.30;;;;;;;29.36;35.87;95673.06;5112007;28;20532;-52
2023/09/29 08:57:54;;;;;;;0.60;0.40;;;;;;;29.41;35.68;95651.66;5111840;28;20439;-51
2023/09/29 09:00:26;;;;;;;0.40;0.37;;;;;;;29.95;34.88;95669.91;5105207;28;20439;-53
2023/09/29 09:02:58;;;;;;;0.40;0.40;;;;;;;30.41;34.06;95670.06;5111509;28;20439;-53
2023/09/29 09:05:28;;;;;;;0.50;0.50;;;;;;;31.06;33.28;95669.75;5111468;28;20492;-53
2023/09/29 09:07:58;;;;;;;0.70;0.70;;;;;;;30.79;34.49;95663.06;5111529;28;20458;-53
2023/09/29 09:10:37;;;;;;;0.40;0.30;;;;;;;30.70;33.78;95660.72;5110999;28;20442;-52
2023/09/29 09:13:06;;;;;;;0.83;0.50;;;;;;;30.95;34.58;95658.03;5111512;28;21035;-52
2023/09/29 09:15:36;;;;;;;0.40;0.33;;;;;;;31.13;34.06;95656.06;5111843;28;20445;-51
2023/09/29 09:18:05;;;;;;;0.40;0.30;;;;;;;31.41;34.10;95647.81;5111352;28;20438;-51
2023/09/29 09:20:34;;;;;;;0.70;0.57;;;;;;;31.14;32.85;95652.16;5112305;28;20442;-52
2023/09/29 09:23:04;;;;;;;0.50;0.40;;;;;;;30.93;34.51;95654.91;5111933;28;21035;-52
2023/09/29 09:25:35;;;;;;;7.60;0.40;;;;;;;31.18;33.10;95647.44;5111927;28;21014;-52
2023/09/29 09:28:07;;;;;;;0.50;0.40;;;;;;;31.12;32.36;95649.00;5085250;28;20517;-52
2023/09/29 09:30:37;;;;;;;1.13;0.60;;;;;;;31.75;31.81;95652.84;5110359;28;20517;-53
2023/09/29 09:33:07;;;;;;;0.50;0.30;;;;;;;32.04;30.37;95626.88;5112351;28;20502;-53
2023/09/29 09:35:38;;;;;;;0.40;0.30;;;;;;;31.88;28.83;95612.81;5115703;28;20510;-52
2023/09/29 09:38:07;;;;;;;0.53;0.47;;;;;;;31.85;30.14;95641.03;5116162;28;20461;-52
2023/09/29 09:40:36;;;;;;;0.40;0.30;;;;;;;33.16;29.21;95633.59;5115429;28;20438;-53
2023/09/29 09:43:10;;;;;;;0.40;0.30;;;;;;;32.93;28.39;95629.84;5115191;28;20442;-52
2023/09/29 09:45:40;;;;;;;0.93;0.70;;;;;;;32.85;28.08;95598.91;5115732;28;20434;-52
2023/09/29 09:48:10;;;;;;;0.67;0.60;;;;;;;33.92;29.31;95610.38;5115593;28;20859;-52
2023/09/29 09:50:44;;;;;;;9.77;0.40;;;;;;;34.26;30.24;95618.59;5115002;28;20433;-52
2023/09/29 09:53:13;;;;;;;0.50;0.40;;;;;;;33.59;27.29;95613.94;5114819;28;20478;-54
2023/09/29 09:55:53;;;;;;;0.40;0.40;;;;;;;33.82;27.65;95608.53;5116010;28;20438;-53
2023/09/29 09:58:24;;;;;;;0.50;0.30;;;;;;;34.12;26.38;95613.28;5115172;28;21007;-54
2023/09/29 10:00:55;;;;;;;0.60;0.60;;;;;;;33.51;26.30;95602.19;5098203;28;20494;-54
2023/09/29 10:03:26;;;;;;;0.50;0.40;;;;;;;33.39;25.49;95605.47;5109764;28;20961;-55
2023/09/29 10:05:56;;;;;;;0.50;0.50;;;;;;;33.41;26.46;95605.84;5115914;28;20438;-55
2023/09/29 10:08:27;;;;;;;0.40;0.30;;;;;;;33.53;26.35;95583.31;5115153;28;20496;-54
2023/09/29 10:11:10;;;;;;;0.80;0.70;;;;;;;32.38;26.88;95600.44;5115277;28;20434;-55
2023/09/29 10:13:44;;;;;;;0.40;0.30;;;;;;;32.97;27.52;95600.34;5115383;28;20561;-54
2023/09/29 10:16:23;;;;;;;3.60;0.50;;;;;;;32.34;26.35;95591.44;5114549;28;20935;-55
2023/09/29 10:18:56;;;;;;;0.93;0.60;;;;;;;32.68;26.97;95577.88;5115433;27;20525;-55
2023/09/29 10:21:25;;;;;;;1.03;0.60;;;;;;;33.03;25.17;95583.09;5114955;28;20963;-55
2023/09/29 10:23:54;;;;;;;0.50;0.40;;;;;;;33.47;25.47;95579.47;5114920;28;20477;-55
2023/09/29 10:26:23;;;;;;;0.40;0.30;;;;;;;33.78;24.40;95556.34;5114698;28;20985;-54
2023/09/29 10:29:02;;;;;;;0.50;0.40;;;;;;;34.30;24.60;95567.03;5114589;28;20446;-54
2023/09/29 10:31:31;;;;;;;0.90;0.90;;;;;;;32.54;26.21;95556.81;5114168;28;20197;-55
2023/09/29 10:34:00;;;;;;;0.40;0.30;;;;;;;33.14;28.12;95566.50;5114234;28;20266;-55
2023/09/29 10:36:31;;;;;;;2.83;0.43;;;;;;;33.47;27.21;95565.72;5114334;28;20462;-55
2023/09/29 10:39:04;;;;;;;0.50;0.50;;;;;;;33.06;25.98;95534.78;5114533;27;20431;-55
2023/09/29 10:41:34;;;;;;;0.47;0.40;;;;;;;33.30;26.58;95558.47;5114272;28;20197;-54
2023/09/29 10:44:06;;;;;;;0.30;0.30;;;;;;;34.04;26.97;95554.81;5113661;28;20434;-55
2023/09/29 10:46:36;;;;;;;0.30;0.30;;;;;;;34.05;26.72;95556.41;5113705;28;20441;-55
2023/09/29 10:49:05;;;;;;;0.60;0.60;;;;;;;34.49;27.09;95544.31;5114353;28;20237;-56
2023/09/29 10:51:34;;;;;;;0.40;0.30;;;;;;;34.22;25.33;95560.09;5114219;28;20439;-56
2023/09/29 10:54:06;;;;;;;0.50;0.33;;;;;;;34.29;25.24;95548.97;5087802;28;20213;-55
2023/09/29 10:56:37;;;;;;;0.40;0.30;;;;;;;33.77;25.97;95527.28;5113869;28;20224;-55
2023/09/29 10:59:09;;;;;;;0.40;0.37;;;;;;;34.87;25.49;95528.38;5114257;28;20561;-55
2023/09/29 11:01:38;;;;;;;0.80;0.80;;;;;;;33.78;24.44;95453.81;5114223;28;20262;-55
2023/09/29 11:04:10;;;;;;;1.27;0.40;;;;;;;34.84;23.58;95529.97;5114264;28;20196;-55
2023/09/29 11:06:45;;;;;;;0.40;0.30;;;;;;;35.88;22.89;95513.78;5113607;28;20266;-55
2023/09/29 11:09:19;;;;;;;0.40;0.30;;;;;;;35.03;23.47;95531.22;5113822;28;20200;-55
2023/09/29 11:11:49;;;;;;;0.50;0.40;;;;;;;34.74;22.69;95489.63;5113958;28;20196;-55
2023/09/29 11:14:19;;;;;;;0.47;0.47;;;;;;;35.20;23.08;95512.81;5113014;28;20208;-55
2023/09/29 11:16:56;;;;;;;0.43;0.40;;;;;;;35.53;22.14;95507.06;5113871;28;20204;-56
2023/09/29 11:19:30;;;;;;;0.40;0.30;;;;;;;35.28;22.72;95514.25;5113772;28;20193;-56
2023/09/29 11:22:01;;;;;;;1.40;0.50;;;;;;;35.40;23.03;95514.38;5114064;28;20189;-55
2023/09/29 11:24:41;;;;;;;0.60;0.50;;;;;;;34.82;22.46;95517.81;5113509;28;20196;-55
2023/09/29 11:27:10;;;;;;;0.30;0.30;;;;;;;35.38;22.24;95514.03;5113516;28;20384;-55
2023/09/29 11:29:40;;;;;;;0.93;0.93;;;;;;;34.72;21.62;95510.53;5113307;28;20265;-55
2023/09/29 11:32:08;;;;;;;0.40;0.40;;;;;;;35.03;21.52;95511.94;5113827;28;20228;-55
2023/09/29 11:34:37;;;;;;;0.50;0.45;;;;;;;35.88;22.45;95505.50;5113273;28;20228;-55
2023/09/29 11:37:06;;;;;;;0.70;0.55;;;;;;;35.87;20.88;95500.44;5113115;28;20227;-55
2023/09/29 11:39:35;;;;;;;0.40;0.40;;;;;;;36.16;20.84;95498.59;5113272;28;20196;-56
2023/09/29 11:42:04;;;;;;;0.40;0.30;;;;;;;35.18;21.18;95498.69;5112425;28;20239;-55
2023/09/29 11:44:34;;;;;;;0.50;0.30;;;;;;;34.99;21.74;95489.19;5113319;28;20197;-55
2023/09/29 11:47:05;;;;;;;0.60;0.40;;;;;;;35.77;21.59;95498.69;5112978;28;20228;-55